This is the latest recevied weather packets stored in our database for station/object IZ1UQG-N2. If no packets are shown the sender has not sent any weather packets the latest 10 day(s).
| Time | Temp. | Humidity | Pressure | Rain* | Wind** | Luminosity | Snow |
|---|---|---|---|---|---|---|---|
| 1777618767 | 12.78° C | 64% | 1026.1 hPa | 0 mm | - | 97 W/m² | - |
| 1777618747 | 12.78° C | 64% | 1026.1 hPa | 0 mm | - | 97 W/m² | - |
| 1777618707 | 12.78° C | 64% | 1026.1 hPa | 0 mm | - | 95 W/m² | - |
| 1777618646 | 12.78° C | 65% | 1026.1 hPa | 0 mm | - | 95 W/m² | - |
| 1777618586 | 12.78° C | 65% | 1026.2 hPa | 0 mm | - | 91 W/m² | - |
| 1777618568 | 12.78° C | 65% | 1026.2 hPa | 0 mm | - | 91 W/m² | - |
| 1777618538 | 12.78° C | 65% | 1026.1 hPa | 0 mm | - | 86 W/m² | - |
| 1777618528 | 12.78° C | 65% | 1026.1 hPa | 0 mm | - | 91 W/m² | - |
| 1777618468 | 12.78° C | 65% | 1026.1 hPa | 0 mm | - | 90 W/m² | - |
| 1777618458 | 12.78° C | 65% | 1026 hPa | 0 mm | - | 84 W/m² | - |
| 1777618418 | 12.78° C | 65% | 1026 hPa | 0 mm | - | 83 W/m² | - |
| 1777618408 | 12.78° C | 65% | 1026.2 hPa | 0 mm | - | 88 W/m² | - |
| 1777618388 | 12.78° C | 65% | 1026.2 hPa | 0 mm | - | 88 W/m² | - |
| 1777618358 | 12.78° C | 66% | 1026.1 hPa | 0 mm | - | 83 W/m² | - |
| 1777618347 | 12.78° C | 65% | 1026.2 hPa | 0 mm | - | 88 W/m² | - |
| 1777618287 | 12.78° C | 65% | 1026.1 hPa | 0 mm | - | 86 W/m² | - |
| 1777618227 | 12.78° C | 65% | 1026 hPa | 0 mm | - | 84 W/m² | - |
| 1777618207 | 12.78° C | 65% | 1026 hPa | 0 mm | - | 84 W/m² | - |
| 1777618167 | 12.78° C | 65% | 1026 hPa | 0 mm | - | 83 W/m² | - |
| 1777618107 | 12.78° C | 66% | 1026.1 hPa | 0 mm | - | 83 W/m² | - |
| 1777618058 | 12.78° C | 65% | 1026 hPa | 0 mm | - | 77 W/m² | - |
| 1777618048 | 12.78° C | 66% | 1026.1 hPa | 0 mm | - | 81 W/m² | - |
| 1777618028 | 12.78° C | 66% | 1026.1 hPa | 0 mm | - | 81 W/m² | - |
| 1777617988 | 12.78° C | 66% | 1026.1 hPa | 0 mm | - | 81 W/m² | - |
| 1777617937 | 12.78° C | 64% | 1026 hPa | 0 mm | - | 76 W/m² | - |
* Rain latest hour (hover to see other rain measurements)
** Current wind speed in m/s (hover to see current wind gust speed)